sensor_id;sensor_type;location;lat;lon;timestamp;pressure;altitude;pressure_sealevel;temperature;humidity
66560;BME280;53413;49.878;8.142;2023-08-08T00:01:14;100001.78;;;12.56;100.00
66560;BME280;53413;49.878;8.142;2023-08-08T00:03:39;100005.59;;;12.49;100.00
66560;BME280;53413;49.878;8.142;2023-08-08T00:06:05;100008.56;;;12.41;100.00
66560;BME280;53413;49.878;8.142;2023-08-08T00:08:30;100017.66;;;12.34;100.00
66560;BME280;53413;49.878;8.142;2023-08-08T00:10:56;100021.22;;;12.33;100.00
66560;BME280;53413;49.878;8.142;2023-08-08T00:13:21;100017.38;;;12.40;100.00
66560;BME280;53413;49.878;8.142;2023-08-08T00:15:47;100011.78;;;12.48;100.00
66560;BME280;53413;49.878;8.142;2023-08-08T00:18:12;100009.28;;;12.45;100.00
66560;BME280;53413;49.878;8.142;2023-08-08T00:20:38;100005.16;;;12.39;100.00
66560;BME280;53413;49.878;8.142;2023-08-08T00:23:03;100007.28;;;12.31;100.00
66560;BME280;53413;49.878;8.142;2023-08-08T00:25:28;100007.41;;;12.28;100.00
66560;BME280;53413;49.878;8.142;2023-08-08T00:27:54;100010.25;;;12.23;100.00
66560;BME280;53413;49.878;8.142;2023-08-08T00:30:19;100009.56;;;12.20;100.00
66560;BME280;53413;49.878;8.142;2023-08-08T00:32:44;100004.50;;;12.15;100.00
66560;BME280;53413;49.878;8.142;2023-08-08T00:35:10;100005.63;;;12.09;100.00
66560;BME280;53413;49.878;8.142;2023-08-08T00:37:35;99995.34;;;12.05;100.00
66560;BME280;53413;49.878;8.142;2023-08-08T00:40:01;99996.47;;;11.99;100.00
66560;BME280;53413;49.878;8.142;2023-08-08T00:42:26;100005.44;;;11.93;100.00
66560;BME280;53413;49.878;8.142;2023-08-08T00:44:52;100002.16;;;11.88;100.00
66560;BME280;53413;49.878;8.142;2023-08-08T00:47:20;99994.28;;;11.88;100.00
66560;BME280;53413;49.878;8.142;2023-08-08T00:49:45;100000.91;;;11.97;100.00
66560;BME280;53413;49.878;8.142;2023-08-08T00:52:13;99998.69;;;12.08;100.00
66560;BME280;53413;49.878;8.142;2023-08-08T00:54:40;100003.47;;;12.19;100.00
66560;BME280;53413;49.878;8.142;2023-08-08T00:57:05;99996.91;;;12.28;100.00
66560;BME280;53413;49.878;8.142;2023-08-08T00:59:31;99992.38;;;12.31;100.00
66560;BME280;53413;49.878;8.142;2023-08-08T01:01:56;99995.72;;;12.35;100.00
66560;BME280;53413;49.878;8.142;2023-08-08T01:04:24;99988.75;;;12.34;100.00
66560;BME280;53413;49.878;8.142;2023-08-08T01:10:18;100000.66;;;12.22;100.00
66560;BME280;53413;49.878;8.142;2023-08-08T01:12:40;100005.56;;;12.11;100.00
66560;BME280;53413;49.878;8.142;2023-08-08T01:15:07;99992.00;;;12.01;100.00
66560;BME280;53413;49.878;8.142;2023-08-08T01:17:35;99995.78;;;11.94;100.00
66560;BME280;53413;49.878;8.142;2023-08-08T01:20:02;99993.47;;;11.86;100.00
66560;BME280;53413;49.878;8.142;2023-08-08T01:22:36;99997.31;;;11.79;100.00
66560;BME280;53413;49.878;8.142;2023-08-08T01:25:03;100000.22;;;11.73;100.00
66560;BME280;53413;49.878;8.142;2023-08-08T01:27:29;100005.72;;;11.66;100.00
66560;BME280;53413;49.878;8.142;2023-08-08T01:29:54;100001.38;;;11.65;100.00
66560;BME280;53413;49.878;8.142;2023-08-08T01:32:19;99996.91;;;11.67;100.00
66560;BME280;53413;49.878;8.142;2023-08-08T01:34:45;99998.63;;;11.68;100.00
66560;BME280;53413;49.878;8.142;2023-08-08T01:37:18;99995.13;;;11.68;100.00
66560;BME280;53413;49.878;8.142;2023-08-08T01:39:46;99993.63;;;11.62;100.00
66560;BME280;53413;49.878;8.142;2023-08-08T01:42:14;99992.31;;;11.52;100.00
66560;BME280;53413;49.878;8.142;2023-08-08T01:44:41;100000.25;;;11.50;100.00
66560;BME280;53413;49.878;8.142;2023-08-08T01:47:08;99995.72;;;11.54;100.00
66560;BME280;53413;49.878;8.142;2023-08-08T01:49:33;99999.41;;;11.50;100.00
66560;BME280;53413;49.878;8.142;2023-08-08T01:51:58;99993.75;;;11.38;100.00
66560;BME280;53413;49.878;8.142;2023-08-08T01:54:24;99997.94;;;11.22;100.00
66560;BME280;53413;49.878;8.142;2023-08-08T01:56:49;100006.53;;;11.03;100.00
66560;BME280;53413;49.878;8.142;2023-08-08T01:59:14;100007.28;;;10.85;100.00
66560;BME280;53413;49.878;8.142;2023-08-08T02:01:40;100001.00;;;10.67;100.00
66560;BME280;53413;49.878;8.142;2023-08-08T02:04:05;100003.22;;;10.54;100.00
66560;BME280;53413;49.878;8.142;2023-08-08T02:06:30;99995.00;;;10.41;100.00
66560;BME280;53413;49.878;8.142;2023-08-08T02:08:56;99998.88;;;10.29;100.00
66560;BME280;53413;49.878;8.142;2023-08-08T02:11:21;99994.09;;;10.16;100.00
66560;BME280;53413;49.878;8.142;2023-08-08T02:13:47;99992.72;;;10.06;100.00
66560;BME280;53413;49.878;8.142;2023-08-08T02:16:12;99992.97;;;10.00;100.00
66560;BME280;53413;49.878;8.142;2023-08-08T02:18:37;99995.75;;;9.95;100.00
66560;BME280;53413;49.878;8.142;2023-08-08T02:21:06;99989.88;;;9.89;100.00
66560;BME280;53413;49.878;8.142;2023-08-08T02:23:31;99992.75;;;9.81;100.00
66560;BME280;53413;49.878;8.142;2023-08-08T02:25:57;99992.97;;;9.75;100.00
66560;BME280;53413;49.878;8.142;2023-08-08T02:28:22;99997.59;;;9.68;100.00
66560;BME280;53413;49.878;8.142;2023-08-08T02:30:47;100000.34;;;9.63;100.00
66560;BME280;53413;49.878;8.142;2023-08-08T02:33:13;99996.16;;;9.58;100.00
66560;BME280;53413;49.878;8.142;2023-08-08T02:35:38;99998.91;;;9.54;100.00
66560;BME280;53413;49.878;8.142;2023-08-08T02:38:04;100006.84;;;9.51;100.00
66560;BME280;53413;49.878;8.142;2023-08-08T02:40:29;99988.81;;;9.44;100.00
66560;BME280;53413;49.878;8.142;2023-08-08T02:42:55;99992.31;;;9.43;100.00
66560;BME280;53413;49.878;8.142;2023-08-08T02:45:20;99995.00;;;9.41;100.00
66560;BME280;53413;49.878;8.142;2023-08-08T02:47:45;99998.56;;;9.38;100.00
66560;BME280;53413;49.878;8.142;2023-08-08T02:50:11;99993.28;;;9.40;100.00
66560;BME280;53413;49.878;8.142;2023-08-08T02:52:36;99999.38;;;9.40;100.00
66560;BME280;53413;49.878;8.142;2023-08-08T02:55:01;99997.66;;;9.39;100.00
66560;BME280;53413;49.878;8.142;2023-08-08T02:57:27;100001.13;;;9.40;100.00
66560;BME280;53413;49.878;8.142;2023-08-08T02:59:53;100003.00;;;9.36;100.00
66560;BME280;53413;49.878;8.142;2023-08-08T03:02:18;99994.38;;;9.33;100.00
66560;BME280;53413;49.878;8.142;2023-08-08T03:04:43;99998.03;;;9.29;100.00
66560;BME280;53413;49.878;8.142;2023-08-08T03:07:09;99992.00;;;9.27;100.00
66560;BME280;53413;49.878;8.142;2023-08-08T03:09:35;99994.59;;;9.27;100.00
66560;BME280;53413;49.878;8.142;2023-08-08T03:12:00;99988.53;;;9.26;100.00
66560;BME280;53413;49.878;8.142;2023-08-08T03:14:25;99986.84;;;9.23;100.00
66560;BME280;53413;49.878;8.142;2023-08-08T03:16:51;99991.28;;;9.21;100.00
66560;BME280;53413;49.878;8.142;2023-08-08T03:19:16;99987.75;;;9.22;100.00
66560;BME280;53413;49.878;8.142;2023-08-08T03:21:42;99986.94;;;9.20;100.00
66560;BME280;53413;49.878;8.142;2023-08-08T03:24:07;99983.44;;;9.21;100.00
66560;BME280;53413;49.878;8.142;2023-08-08T03:26:32;99990.34;;;9.24;100.00
66560;BME280;53413;49.878;8.142;2023-08-08T03:28:58;99991.09;;;9.28;100.00
66560;BME280;53413;49.878;8.142;2023-08-08T03:31:23;99985.03;;;9.26;100.00
66560;BME280;53413;49.878;8.142;2023-08-08T03:33:49;99992.09;;;9.23;100.00
66560;BME280;53413;49.878;8.142;2023-08-08T03:36:15;99997.41;;;9.20;100.00
66560;BME280;53413;49.878;8.142;2023-08-08T03:38:40;99994.00;;;9.18;100.00
66560;BME280;53413;49.878;8.142;2023-08-08T03:41:09;99990.69;;;9.13;100.00
66560;BME280;53413;49.878;8.142;2023-08-08T03:43:34;99998.59;;;9.12;100.00
66560;BME280;53413;49.878;8.142;2023-08-08T03:46:00;99999.50;;;9.09;100.00
66560;BME280;53413;49.878;8.142;2023-08-08T03:48:25;99999.72;;;9.03;100.00
66560;BME280;53413;49.878;8.142;2023-08-08T03:50:50;100003.44;;;8.96;100.00
66560;BME280;53413;49.878;8.142;2023-08-08T03:53:16;99998.41;;;8.89;100.00
66560;BME280;53413;49.878;8.142;2023-08-08T03:55:41;100002.13;;;8.82;100.00
66560;BME280;53413;49.878;8.142;2023-08-08T03:58:06;100006.47;;;8.82;100.00
66560;BME280;53413;49.878;8.142;2023-08-08T04:00:32;100001.34;;;8.78;100.00
66560;BME280;53413;49.878;8.142;2023-08-08T04:02:57;99988.41;;;8.74;100.00
66560;BME280;53413;49.878;8.142;2023-08-08T04:05:23;99991.94;;;8.73;100.00
66560;BME280;53413;49.878;8.142;2023-08-08T04:07:48;99996.25;;;8.74;100.00
66560;BME280;53413;49.878;8.142;2023-08-08T04:10:13;99999.50;;;8.82;100.00
66560;BME280;53413;49.878;8.142;2023-08-08T04:12:39;99994.06;;;8.88;100.00
66560;BME280;53413;49.878;8.142;2023-08-08T04:15:04;99994.78;;;8.93;100.00
66560;BME280;53413;49.878;8.142;2023-08-08T04:17:30;99992.03;;;8.98;100.00
66560;BME280;53413;49.878;8.142;2023-08-08T04:19:55;99990.88;;;9.07;100.00
66560;BME280;53413;49.878;8.142;2023-08-08T04:22:20;99994.16;;;9.14;100.00
66560;BME280;53413;49.878;8.142;2023-08-08T04:24:46;99993.88;;;9.21;100.00
66560;BME280;53413;49.878;8.142;2023-08-08T04:27:11;99997.13;;;9.30;100.00
66560;BME280;53413;49.878;8.142;2023-08-08T04:29:36;99997.66;;;9.39;100.00
66560;BME280;53413;49.878;8.142;2023-08-08T04:32:02;100000.88;;;9.48;100.00
66560;BME280;53413;49.878;8.142;2023-08-08T04:34:27;99992.66;;;9.59;100.00
66560;BME280;53413;49.878;8.142;2023-08-08T04:36:53;99995.00;;;9.66;100.00
66560;BME280;53413;49.878;8.142;2023-08-08T04:39:18;100002.59;;;9.74;100.00
66560;BME280;53413;49.878;8.142;2023-08-08T04:41:43;99994.41;;;9.83;100.00
66560;BME280;53413;49.878;8.142;2023-08-08T04:44:09;99993.31;;;9.91;100.00
66560;BME280;53413;49.878;8.142;2023-08-08T04:46:34;99994.69;;;10.01;100.00
66560;BME280;53413;49.878;8.142;2023-08-08T04:48:59;99989.09;;;10.10;100.00
66560;BME280;53413;49.878;8.142;2023-08-08T04:51:25;99985.31;;;10.17;100.00
66560;BME280;53413;49.878;8.142;2023-08-08T04:53:50;99976.25;;;10.28;100.00
66560;BME280;53413;49.878;8.142;2023-08-08T04:56:16;99976.75;;;10.38;100.00
66560;BME280;53413;49.878;8.142;2023-08-08T04:58:41;99981.66;;;10.47;100.00
66560;BME280;53413;49.878;8.142;2023-08-08T05:01:06;99972.47;;;10.59;100.00
66560;BME280;53413;49.878;8.142;2023-08-08T05:03:34;99970.28;;;10.70;100.00
66560;BME280;53413;49.878;8.142;2023-08-08T05:05:59;99966.38;;;10.81;100.00
66560;BME280;53413;49.878;8.142;2023-08-08T05:08:25;99967.78;;;10.89;100.00
66560;BME280;53413;49.878;8.142;2023-08-08T05:10:51;99963.94;;;10.98;100.00
66560;BME280;53413;49.878;8.142;2023-08-08T05:13:16;99964.47;;;11.06;100.00
66560;BME280;53413;49.878;8.142;2023-08-08T05:15:41;99963.16;;;11.17;100.00
66560;BME280;53413;49.878;8.142;2023-08-08T05:18:07;99963.66;;;11.27;100.00
66560;BME280;53413;49.878;8.142;2023-08-08T05:20:32;99959.78;;;11.35;100.00
66560;BME280;53413;49.878;8.142;2023-08-08T05:22:57;99959.41;;;11.45;100.00
66560;BME280;53413;49.878;8.142;2023-08-08T05:25:23;99955.44;;;11.55;100.00
66560;BME280;53413;49.878;8.142;2023-08-08T05:27:48;99954.13;;;11.65;100.00
66560;BME280;53413;49.878;8.142;2023-08-08T05:30:15;99947.44;;;11.79;100.00
66560;BME280;53413;49.878;8.142;2023-08-08T05:32:40;99955.59;;;11.92;100.00
66560;BME280;53413;49.878;8.142;2023-08-08T05:35:06;99950.75;;;12.03;100.00
66560;BME280;53413;49.878;8.142;2023-08-08T05:37:31;99947.56;;;12.15;100.00
66560;BME280;53413;49.878;8.142;2023-08-08T05:39:57;99953.13;;;12.28;100.00
66560;BME280;53413;49.878;8.142;2023-08-08T05:42:22;99948.22;;;12.40;100.00
66560;BME280;53413;49.878;8.142;2023-08-08T05:44:47;99939.59;;;12.55;100.00
66560;BME280;53413;49.878;8.142;2023-08-08T05:47:13;99937.94;;;12.72;100.00
66560;BME280;53413;49.878;8.142;2023-08-08T05:49:38;99944.16;;;12.88;100.00
66560;BME280;53413;49.878;8.142;2023-08-08T05:52:06;99945.13;;;13.05;100.00
66560;BME280;53413;49.878;8.142;2023-08-08T05:54:31;99940.63;;;13.24;100.00
66560;BME280;53413;49.878;8.142;2023-08-08T05:56:57;99950.78;;;13.50;100.00
66560;BME280;53413;49.878;8.142;2023-08-08T05:59:22;99944.38;;;13.72;100.00
66560;BME280;53413;49.878;8.142;2023-08-08T06:01:48;99949.13;;;13.98;100.00
66560;BME280;53413;49.878;8.142;2023-08-08T06:04:13;99942.13;;;14.31;100.00
66560;BME280;53413;49.878;8.142;2023-08-08T06:06:39;99939.22;;;14.68;100.00
66560;BME280;53413;49.878;8.142;2023-08-08T06:09:04;99939.19;;;17.93;100.00
66560;BME280;53413;49.878;8.142;2023-08-08T06:11:30;99931.06;;;22.25;81.37
66560;BME280;53413;49.878;8.142;2023-08-08T06:13:55;99930.19;;;25.19;63.49
66560;BME280;53413;49.878;8.142;2023-08-08T06:16:21;99936.66;;;28.13;53.29
66560;BME280;53413;49.878;8.142;2023-08-08T06:18:46;99941.81;;;29.09;47.76
66560;BME280;53413;49.878;8.142;2023-08-08T06:21:12;99946.09;;;28.71;46.79
66560;BME280;53413;49.878;8.142;2023-08-08T06:23:37;99953.84;;;28.98;46.78
66560;BME280;53413;49.878;8.142;2023-08-08T06:26:03;99945.00;;;29.95;45.06
66560;BME280;53413;49.878;8.142;2023-08-08T06:28:28;99936.78;;;31.77;40.02
66560;BME280;53413;49.878;8.142;2023-08-08T06:30:55;99929.22;;;33.71;36.61
66560;BME280;53413;49.878;8.142;2023-08-08T06:33:20;99927.00;;;35.16;34.26
66560;BME280;53413;49.878;8.142;2023-08-08T06:35:46;99927.97;;;36.21;32.36
66560;BME280;53413;49.878;8.142;2023-08-08T06:38:11;99932.81;;;37.47;30.92
66560;BME280;53413;49.878;8.142;2023-08-08T06:40:37;99922.84;;;37.81;31.22
66560;BME280;53413;49.878;8.142;2023-08-08T06:43:02;99916.44;;;38.28;28.78
66560;BME280;53413;49.878;8.142;2023-08-08T06:45:28;99924.44;;;37.18;29.63
66560;BME280;53413;49.878;8.142;2023-08-08T06:47:53;99917.09;;;37.06;29.24
66560;BME280;53413;49.878;8.142;2023-08-08T06:50:18;99926.34;;;38.17;28.81
66560;BME280;53413;49.878;8.142;2023-08-08T06:52:47;99919.88;;;38.99;28.20
66560;BME280;53413;49.878;8.142;2023-08-08T06:55:12;99915.94;;;39.11;26.93
66560;BME280;53413;49.878;8.142;2023-08-08T06:57:37;99911.53;;;39.10;26.96
66560;BME280;53413;49.878;8.142;2023-08-08T07:00:03;99911.75;;;39.82;25.81
66560;BME280;53413;49.878;8.142;2023-08-08T07:02:33;99907.53;;;39.97;25.58
66560;BME280;53413;49.878;8.142;2023-08-08T07:04:59;99903.97;;;40.24;25.33
66560;BME280;53413;49.878;8.142;2023-08-08T07:07:24;99904.53;;;40.81;24.80
66560;BME280;53413;49.878;8.142;2023-08-08T07:09:50;99913.91;;;39.80;25.40
66560;BME280;53413;49.878;8.142;2023-08-08T07:12:15;99910.88;;;39.20;25.41
66560;BME280;53413;49.878;8.142;2023-08-08T07:14:41;99907.31;;;39.37;25.32
66560;BME280;53413;49.878;8.142;2023-08-08T07:17:06;99910.41;;;38.89;25.28
66560;BME280;53413;49.878;8.142;2023-08-08T07:19:32;99910.56;;;39.56;24.96
66560;BME280;53413;49.878;8.142;2023-08-08T07:21:57;99903.69;;;39.98;24.48
66560;BME280;53413;49.878;8.142;2023-08-08T07:24:22;99908.44;;;40.30;24.11
66560;BME280;53413;49.878;8.142;2023-08-08T07:26:51;99911.63;;;40.76;23.90
66560;BME280;53413;49.878;8.142;2023-08-08T07:29:17;99905.91;;;41.69;22.46
66560;BME280;53413;49.878;8.142;2023-08-08T07:31:42;99904.44;;;42.25;22.67
66560;BME280;53413;49.878;8.142;2023-08-08T07:34:08;99899.25;;;43.21;21.68
66560;BME280;53413;49.878;8.142;2023-08-08T07:36:33;99904.78;;;42.59;21.56
66560;BME280;53413;49.878;8.142;2023-08-08T07:38:58;99907.03;;;40.55;23.33
66560;BME280;53413;49.878;8.142;2023-08-08T07:41:26;99897.84;;;39.28;24.90
66560;BME280;53413;49.878;8.142;2023-08-08T07:43:52;99894.72;;;39.02;24.60
66560;BME280;53413;49.878;8.142;2023-08-08T07:46:17;99891.19;;;40.62;22.99
66560;BME280;53413;49.878;8.142;2023-08-08T07:48:43;99894.88;;;41.64;23.18
66560;BME280;53413;49.878;8.142;2023-08-08T07:51:08;99899.38;;;41.27;22.83
66560;BME280;53413;49.878;8.142;2023-08-08T07:53:33;99899.53;;;41.10;22.54
66560;BME280;53413;49.878;8.142;2023-08-08T07:55:59;99900.16;;;41.81;21.89
66560;BME280;53413;49.878;8.142;2023-08-08T07:58:27;99889.63;;;42.52;21.14
66560;BME280;53413;49.878;8.142;2023-08-08T08:00:53;99886.31;;;42.55;21.09
66560;BME280;53413;49.878;8.142;2023-08-08T08:03:19;99894.97;;;40.88;21.90
66560;BME280;53413;49.878;8.142;2023-08-08T08:05:45;99893.03;;;40.56;22.68
66560;BME280;53413;49.878;8.142;2023-08-08T08:08:10;99894.25;;;40.66;23.03
66560;BME280;53413;49.878;8.142;2023-08-08T08:10:35;99889.50;;;39.79;23.80
66560;BME280;53413;49.878;8.142;2023-08-08T08:13:01;99895.38;;;39.70;23.79
66560;BME280;53413;49.878;8.142;2023-08-08T08:15:27;99897.91;;;39.72;23.71
66560;BME280;53413;49.878;8.142;2023-08-08T08:17:53;99896.91;;;40.06;23.60
66560;BME280;53413;49.878;8.142;2023-08-08T08:20:19;99901.97;;;40.41;23.48
66560;BME280;53413;49.878;8.142;2023-08-08T08:22:45;99901.09;;;40.63;23.19
66560;BME280;53413;49.878;8.142;2023-08-08T08:25:11;99904.91;;;40.62;23.37
66560;BME280;53413;49.878;8.142;2023-08-08T08:27:36;99896.94;;;39.83;23.91
66560;BME280;53413;49.878;8.142;2023-08-08T08:30:04;99896.16;;;40.38;23.36
66560;BME280;53413;49.878;8.142;2023-08-08T08:32:34;99889.69;;;40.82;22.97
66560;BME280;53413;49.878;8.142;2023-08-08T08:35:01;99894.53;;;41.02;23.13
66560;BME280;53413;49.878;8.142;2023-08-08T08:37:27;99884.63;;;39.86;23.86
66560;BME280;53413;49.878;8.142;2023-08-08T08:39:53;99891.56;;;38.93;24.86
66560;BME280;53413;49.878;8.142;2023-08-08T08:42:18;99890.03;;;38.51;24.96
66560;BME280;53413;49.878;8.142;2023-08-08T08:44:44;99892.09;;;37.74;25.42
66560;BME280;53413;49.878;8.142;2023-08-08T08:47:12;99892.75;;;37.05;26.50
66560;BME280;53413;49.878;8.142;2023-08-08T08:49:38;99895.56;;;37.34;26.21
66560;BME280;53413;49.878;8.142;2023-08-08T08:52:04;99885.19;;;37.71;25.82
66560;BME280;53413;49.878;8.142;2023-08-08T08:54:31;99888.75;;;37.72;25.70
66560;BME280;53413;49.878;8.142;2023-08-08T08:56:58;99893.47;;;38.00;26.40
66560;BME280;53413;49.878;8.142;2023-08-08T08:59:23;99899.72;;;37.36;26.00
66560;BME280;53413;49.878;8.142;2023-08-08T09:01:50;99896.13;;;36.34;27.47
66560;BME280;53413;49.878;8.142;2023-08-08T09:04:18;99895.88;;;36.05;27.34
66560;BME280;53413;49.878;8.142;2023-08-08T09:06:45;99895.56;;;35.39;28.13
66560;BME280;53413;49.878;8.142;2023-08-08T09:09:11;99888.75;;;35.29;28.15
66560;BME280;53413;49.878;8.142;2023-08-08T09:11:38;99887.84;;;34.85;29.08
66560;BME280;53413;49.878;8.142;2023-08-08T09:16:43;99888.03;;;35.59;28.79
66560;BME280;53413;49.878;8.142;2023-08-08T09:19:08;99883.38;;;35.23;28.69
66560;BME280;53413;49.878;8.142;2023-08-08T09:21:33;99885.09;;;35.17;29.06
66560;BME280;53413;49.878;8.142;2023-08-08T09:23:58;99887.91;;;35.29;29.29
66560;BME280;53413;49.878;8.142;2023-08-08T09:26:24;99894.97;;;36.42;28.56
66560;BME280;53413;49.878;8.142;2023-08-08T09:28:50;99892.53;;;36.52;28.14
66560;BME280;53413;49.878;8.142;2023-08-08T09:31:16;99893.31;;;35.73;29.10
66560;BME280;53413;49.878;8.142;2023-08-08T09:33:41;99884.31;;;35.10;28.95
66560;BME280;53413;49.878;8.142;2023-08-08T09:36:13;99885.59;;;34.50;29.67
66560;BME280;53413;49.878;8.142;2023-08-08T09:38:39;99885.53;;;33.72;30.87
66560;BME280;53413;49.878;8.142;2023-08-08T09:41:04;99880.56;;;33.56;30.99
66560;BME280;53413;49.878;8.142;2023-08-08T09:43:32;99874.03;;;33.70;30.84
66560;BME280;53413;49.878;8.142;2023-08-08T09:45:58;99873.72;;;34.37;30.61
66560;BME280;53413;49.878;8.142;2023-08-08T09:48:29;99876.22;;;34.00;31.00
66560;BME280;53413;49.878;8.142;2023-08-08T09:50:58;99877.06;;;33.28;31.42
66560;BME280;53413;49.878;8.142;2023-08-08T09:53:25;99887.69;;;32.49;32.48
66560;BME280;53413;49.878;8.142;2023-08-08T09:55:54;99873.97;;;32.09;32.71
66560;BME280;53413;49.878;8.142;2023-08-08T09:58:19;99878.75;;;32.00;33.96
66560;BME280;53413;49.878;8.142;2023-08-08T10:00:45;99877.50;;;31.96;33.43
66560;BME280;53413;49.878;8.142;2023-08-08T10:03:11;99869.63;;;32.21;33.58
66560;BME280;53413;49.878;8.142;2023-08-08T10:05:36;99864.47;;;32.27;33.45
66560;BME280;53413;49.878;8.142;2023-08-08T10:08:04;99865.56;;;32.66;33.36
66560;BME280;53413;49.878;8.142;2023-08-08T10:10:30;99857.03;;;32.82;32.85
66560;BME280;53413;49.878;8.142;2023-08-08T10:12:56;99859.94;;;32.74;32.36
66560;BME280;53413;49.878;8.142;2023-08-08T10:15:25;99860.72;;;32.28;33.32
66560;BME280;53413;49.878;8.142;2023-08-08T10:17:54;99863.50;;;32.95;33.94
66560;BME280;53413;49.878;8.142;2023-08-08T10:20:20;99865.31;;;32.34;32.91
66560;BME280;53413;49.878;8.142;2023-08-08T10:22:46;99854.78;;;30.98;34.25
66560;BME280;53413;49.878;8.142;2023-08-08T10:25:19;99858.69;;;30.24;35.81
66560;BME280;53413;49.878;8.142;2023-08-08T10:27:47;99860.06;;;29.98;35.23
66560;BME280;53413;49.878;8.142;2023-08-08T10:30:13;99854.88;;;29.52;36.24
66560;BME280;53413;49.878;8.142;2023-08-08T10:32:44;99851.00;;;29.01;37.64
66560;BME280;53413;49.878;8.142;2023-08-08T10:35:12;99853.72;;;28.54;37.70
66560;BME280;53413;49.878;8.142;2023-08-08T10:37:38;99849.34;;;28.30;38.02
66560;BME280;53413;49.878;8.142;2023-08-08T10:40:05;99858.00;;;28.17;37.92
66560;BME280;53413;49.878;8.142;2023-08-08T10:42:31;99851.97;;;28.07;38.39
66560;BME280;53413;49.878;8.142;2023-08-08T10:44:59;99861.41;;;28.03;39.15
66560;BME280;53413;49.878;8.142;2023-08-08T10:47:24;99861.81;;;27.91;38.73
66560;BME280;53413;49.878;8.142;2023-08-08T10:49:59;99853.94;;;28.21;38.41
66560;BME280;53413;49.878;8.142;2023-08-08T10:52:24;99859.06;;;28.08;38.54
66560;BME280;53413;49.878;8.142;2023-08-08T10:54:53;99853.56;;;27.93;39.19
66560;BME280;53413;49.878;8.142;2023-08-08T10:57:23;99858.06;;;28.01;40.17
66560;BME280;53413;49.878;8.142;2023-08-08T10:59:49;99849.03;;;27.37;38.79
66560;BME280;53413;49.878;8.142;2023-08-08T11:02:14;99846.91;;;27.08;38.90
66560;BME280;53413;49.878;8.142;2023-08-08T11:04:40;99852.47;;;26.98;38.87
66560;BME280;53413;49.878;8.142;2023-08-08T11:07:06;99855.31;;;27.04;39.79
66560;BME280;53413;49.878;8.142;2023-08-08T11:09:32;99857.16;;;27.12;39.31
66560;BME280;53413;49.878;8.142;2023-08-08T11:11:57;99854.66;;;27.11;39.47
66560;BME280;53413;49.878;8.142;2023-08-08T11:14:22;99860.03;;;26.61;40.00
66560;BME280;53413;49.878;8.142;2023-08-08T11:16:50;99858.94;;;26.29;40.53
66560;BME280;53413;49.878;8.142;2023-08-08T11:19:16;99865.31;;;26.20;40.83
66560;BME280;53413;49.878;8.142;2023-08-08T11:21:46;99856.25;;;26.12;41.13
66560;BME280;53413;49.878;8.142;2023-08-08T11:24:12;99860.00;;;26.36;41.14
66560;BME280;53413;49.878;8.142;2023-08-08T11:26:40;99851.81;;;26.87;41.63
66560;BME280;53413;49.878;8.142;2023-08-08T11:29:06;99846.72;;;27.26;40.83
66560;BME280;53413;49.878;8.142;2023-08-08T11:31:36;99846.81;;;27.57;40.25
66560;BME280;53413;49.878;8.142;2023-08-08T11:34:03;99848.94;;;27.70;39.44
66560;BME280;53413;49.878;8.142;2023-08-08T11:36:31;99848.78;;;27.72;39.25
66560;BME280;53413;49.878;8.142;2023-08-08T11:38:59;99843.75;;;27.69;38.44
66560;BME280;53413;49.878;8.142;2023-08-08T11:41:26;99846.34;;;27.37;39.43
66560;BME280;53413;49.878;8.142;2023-08-08T11:43:52;99847.53;;;27.34;38.53
66560;BME280;53413;49.878;8.142;2023-08-08T11:46:18;99847.16;;;27.38;39.36
66560;BME280;53413;49.878;8.142;2023-08-08T11:48:47;99850.53;;;27.40;39.47
66560;BME280;53413;49.878;8.142;2023-08-08T11:51:14;99850.00;;;27.61;38.35
66560;BME280;53413;49.878;8.142;2023-08-08T11:53:51;99845.72;;;27.83;38.40
66560;BME280;53413;49.878;8.142;2023-08-08T11:56:20;99845.75;;;28.06;38.79
66560;BME280;53413;49.878;8.142;2023-08-08T11:58:49;99842.88;;;28.16;37.67
66560;BME280;53413;49.878;8.142;2023-08-08T12:01:16;99845.84;;;28.21;38.20
66560;BME280;53413;49.878;8.142;2023-08-08T12:03:42;99844.22;;;28.12;37.83
66560;BME280;53413;49.878;8.142;2023-08-08T12:06:16;99840.88;;;28.02;36.98
66560;BME280;53413;49.878;8.142;2023-08-08T12:08:43;99832.47;;;28.05;37.03
66560;BME280;53413;49.878;8.142;2023-08-08T12:11:10;99838.53;;;27.99;37.49
66560;BME280;53413;49.878;8.142;2023-08-08T12:13:41;99835.81;;;28.07;37.04
66560;BME280;53413;49.878;8.142;2023-08-08T12:16:09;99838.38;;;28.00;37.26
66560;BME280;53413;49.878;8.142;2023-08-08T12:18:36;99831.84;;;27.94;37.93
66560;BME280;53413;49.878;8.142;2023-08-08T12:21:06;99821.47;;;28.15;36.20
66560;BME280;53413;49.878;8.142;2023-08-08T12:23:32;99828.53;;;28.16;37.11
66560;BME280;53413;49.878;8.142;2023-08-08T12:25:59;99833.34;;;27.97;37.77
66560;BME280;53413;49.878;8.142;2023-08-08T12:28:25;99833.16;;;27.99;36.66
66560;BME280;53413;49.878;8.142;2023-08-08T12:30:50;99831.84;;;27.94;37.46
66560;BME280;53413;49.878;8.142;2023-08-08T12:33:16;99831.72;;;27.88;37.77
66560;BME280;53413;49.878;8.142;2023-08-08T12:35:41;99830.81;;;27.64;37.84
66560;BME280;53413;49.878;8.142;2023-08-08T12:38:07;99838.13;;;27.47;38.08
66560;BME280;53413;49.878;8.142;2023-08-08T12:40:32;99833.38;;;27.41;38.67
66560;BME280;53413;49.878;8.142;2023-08-08T12:42:59;99836.09;;;27.32;37.78
66560;BME280;53413;49.878;8.142;2023-08-08T12:45:24;99837.41;;;27.37;38.39
66560;BME280;53413;49.878;8.142;2023-08-08T12:47:49;99835.88;;;27.59;39.71
66560;BME280;53413;49.878;8.142;2023-08-08T12:50:15;99832.50;;;27.57;38.21
66560;BME280;53413;49.878;8.142;2023-08-08T12:52:41;99827.84;;;27.42;37.52
66560;BME280;53413;49.878;8.142;2023-08-08T12:55:07;99841.84;;;27.13;38.85